sensor_id;sensor_type;location;lat;lon;timestamp;pressure;altitude;pressure_sealevel;temperature;humidity
60061;BME280;45933;51.336;12.612;2024-03-17T00:01:31;100608.69;;;6.34;56.06
60061;BME280;45933;51.336;12.612;2024-03-17T00:03:57;100605.19;;;6.32;56.26
60061;BME280;45933;51.336;12.612;2024-03-17T00:06:22;100611.22;;;6.31;55.88
60061;BME280;45933;51.336;12.612;2024-03-17T00:08:47;100613.78;;;6.29;56.22
60061;BME280;45933;51.336;12.612;2024-03-17T00:11:12;100608.59;;;6.29;55.96
60061;BME280;45933;51.336;12.612;2024-03-17T00:13:38;100608.53;;;6.26;55.91
60061;BME280;45933;51.336;12.612;2024-03-17T00:16:03;100612.84;;;6.25;56.14
60061;BME280;45933;51.336;12.612;2024-03-17T00:18:29;100612.78;;;6.22;56.29
60061;BME280;45933;51.336;12.612;2024-03-17T00:20:55;100612.72;;;6.21;55.91
60061;BME280;45933;51.336;12.612;2024-03-17T00:23:20;100614.41;;;6.17;56.00
60061;BME280;45933;51.336;12.612;2024-03-17T00:25:48;100622.13;;;6.16;56.21
60061;BME280;45933;51.336;12.612;2024-03-17T00:28:15;100622.06;;;6.13;56.42
60061;BME280;45933;51.336;12.612;2024-03-17T00:30:41;100613.34;;;6.08;56.16
60061;BME280;45933;51.336;12.612;2024-03-17T00:33:06;100610.69;;;6.06;56.50
60061;BME280;45933;51.336;12.612;2024-03-17T00:35:31;100619.31;;;6.05;56.25
60061;BME280;45933;51.336;12.612;2024-03-17T00:37:58;100621.78;;;6.00;56.54
60061;BME280;45933;51.336;12.612;2024-03-17T00:40:23;100620.03;;;5.98;56.43
60061;BME280;45933;51.336;12.612;2024-03-17T00:42:48;100616.53;;;5.96;56.41
60061;BME280;45933;51.336;12.612;2024-03-17T00:45:14;100615.63;;;5.94;56.76
60061;BME280;45933;51.336;12.612;2024-03-17T00:47:40;100616.44;;;5.91;56.71
60061;BME280;45933;51.336;12.612;2024-03-17T00:50:05;100614.63;;;5.89;56.68
60061;BME280;45933;51.336;12.612;2024-03-17T00:52:36;100608.53;;;5.87;56.76
60061;BME280;45933;51.336;12.612;2024-03-17T00:55:02;100615.44;;;5.86;57.06
60061;BME280;45933;51.336;12.612;2024-03-17T00:57:27;100619.69;;;5.84;56.68
60061;BME280;45933;51.336;12.612;2024-03-17T00:59:53;100620.56;;;5.85;56.24
60061;BME280;45933;51.336;12.612;2024-03-17T01:02:18;100616.22;;;5.84;56.52
60061;BME280;45933;51.336;12.612;2024-03-17T01:04:44;100619.63;;;5.81;56.95
60061;BME280;45933;51.336;12.612;2024-03-17T01:07:10;100619.53;;;5.76;56.84
60061;BME280;45933;51.336;12.612;2024-03-17T01:09:36;100616.91;;;5.75;56.75
60061;BME280;45933;51.336;12.612;2024-03-17T01:12:02;100620.31;;;5.74;56.74
60061;BME280;45933;51.336;12.612;2024-03-17T01:14:28;100616.84;;;5.72;56.80
60061;BME280;45933;51.336;12.612;2024-03-17T01:16:54;100613.34;;;5.70;56.91
60061;BME280;45933;51.336;12.612;2024-03-17T01:19:19;100612.41;;;5.66;56.61
60061;BME280;45933;51.336;12.612;2024-03-17T01:21:45;100608.00;;;5.64;56.60
60061;BME280;45933;51.336;12.612;2024-03-17T01:24:10;100608.00;;;5.64;56.52
60061;BME280;45933;51.336;12.612;2024-03-17T01:26:35;100601.06;;;5.61;56.79
60061;BME280;45933;51.336;12.612;2024-03-17T01:29:01;100608.81;;;5.60;56.86
60061;BME280;45933;51.336;12.612;2024-03-17T01:31:27;100604.41;;;5.56;56.65
60061;BME280;45933;51.336;12.612;2024-03-17T01:33:52;100605.25;;;5.55;56.99
60061;BME280;45933;51.336;12.612;2024-03-17T01:36:17;100606.91;;;5.53;57.23
60061;BME280;45933;51.336;12.612;2024-03-17T01:38:43;100610.31;;;5.50;56.98
60061;BME280;45933;51.336;12.612;2024-03-17T01:41:08;100610.22;;;5.47;56.83
60061;BME280;45933;51.336;12.612;2024-03-17T01:43:33;100606.75;;;5.46;56.91
60061;BME280;45933;51.336;12.612;2024-03-17T01:45:59;100612.75;;;5.44;57.23
60061;BME280;45933;51.336;12.612;2024-03-17T01:48:25;100603.22;;;5.43;56.83
60061;BME280;45933;51.336;12.612;2024-03-17T01:50:53;100613.56;;;5.43;57.09
60061;BME280;45933;51.336;12.612;2024-03-17T01:53:20;100608.31;;;5.38;57.46
60061;BME280;45933;51.336;12.612;2024-03-17T01:55:47;100608.25;;;5.37;57.08
60061;BME280;45933;51.336;12.612;2024-03-17T01:58:12;100610.78;;;5.34;56.85
60061;BME280;45933;51.336;12.612;2024-03-17T02:00:39;100617.59;;;5.32;56.75
60061;BME280;45933;51.336;12.612;2024-03-17T02:03:06;100614.97;;;5.29;57.08
60061;BME280;45933;51.336;12.612;2024-03-17T02:05:32;100609.72;;;5.27;57.22
60061;BME280;45933;51.336;12.612;2024-03-17T02:07:59;100612.28;;;5.25;57.54
60061;BME280;45933;51.336;12.612;2024-03-17T02:10:24;100611.41;;;5.23;57.53
60061;BME280;45933;51.336;12.612;2024-03-17T02:12:50;100614.75;;;5.21;57.50
60061;BME280;45933;51.336;12.612;2024-03-17T02:15:16;100612.16;;;5.19;57.58
60061;BME280;45933;51.336;12.612;2024-03-17T02:17:41;100611.28;;;5.19;57.95
60061;BME280;45933;51.336;12.612;2024-03-17T02:20:07;100619.03;;;5.19;57.65
60061;BME280;45933;51.336;12.612;2024-03-17T02:22:35;100611.25;;;5.17;57.89
60061;BME280;45933;51.336;12.612;2024-03-17T02:25:01;100612.97;;;5.17;57.87
60061;BME280;45933;51.336;12.612;2024-03-17T02:27:27;100607.78;;;5.17;57.94
60061;BME280;45933;51.336;12.612;2024-03-17T02:29:52;100612.13;;;5.18;58.03
60061;BME280;45933;51.336;12.612;2024-03-17T02:32:18;100606.88;;;5.16;57.96
60061;BME280;45933;51.336;12.612;2024-03-17T02:34:44;100598.31;;;5.17;58.04
60061;BME280;45933;51.336;12.612;2024-03-17T02:37:10;100604.31;;;5.16;57.87
60061;BME280;45933;51.336;12.612;2024-03-17T02:39:35;100612.06;;;5.16;57.94
60061;BME280;45933;51.336;12.612;2024-03-17T02:42:04;100603.50;;;5.17;57.53
60061;BME280;45933;51.336;12.612;2024-03-17T02:44:31;100602.53;;;5.14;57.55
60061;BME280;45933;51.336;12.612;2024-03-17T02:46:57;100603.31;;;5.11;57.81
60061;BME280;45933;51.336;12.612;2024-03-17T02:49:23;100600.69;;;5.10;57.34
60061;BME280;45933;51.336;12.612;2024-03-17T02:51:49;100605.00;;;5.09;57.99
60061;BME280;45933;51.336;12.612;2024-03-17T02:54:14;100607.56;;;5.08;57.72
60061;BME280;45933;51.336;12.612;2024-03-17T02:56:39;100602.31;;;5.05;57.28
60061;BME280;45933;51.336;12.612;2024-03-17T02:59:04;100612.63;;;5.05;57.73
60061;BME280;45933;51.336;12.612;2024-03-17T03:01:30;100601.41;;;5.03;57.86
60061;BME280;45933;51.336;12.612;2024-03-17T03:03:55;100606.47;;;4.99;57.76
60061;BME280;45933;51.336;12.612;2024-03-17T03:06:20;100602.16;;;4.98;57.83
60061;BME280;45933;51.336;12.612;2024-03-17T03:08:46;100602.13;;;4.97;57.89
60061;BME280;45933;51.336;12.612;2024-03-17T03:11:15;100602.06;;;4.95;58.21
60061;BME280;45933;51.336;12.612;2024-03-17T03:13:42;100596.03;;;4.95;57.96
60061;BME280;45933;51.336;12.612;2024-03-17T03:16:12;100599.53;;;4.97;58.11
60061;BME280;45933;51.336;12.612;2024-03-17T03:18:44;100599.44;;;4.94;58.17
60061;BME280;45933;51.336;12.612;2024-03-17T03:21:10;100606.22;;;4.89;58.19
60061;BME280;45933;51.336;12.612;2024-03-17T03:23:36;100601.00;;;4.87;58.18
60061;BME280;45933;51.336;12.612;2024-03-17T03:26:02;100607.88;;;4.87;58.55
60061;BME280;45933;51.336;12.612;2024-03-17T03:28:32;100601.78;;;4.85;58.29
60061;BME280;45933;51.336;12.612;2024-03-17T03:30:58;100602.59;;;4.82;57.96
60061;BME280;45933;51.336;12.612;2024-03-17T03:33:24;100596.47;;;4.79;57.92
60061;BME280;45933;51.336;12.612;2024-03-17T03:35:49;100604.19;;;4.77;57.80
60061;BME280;45933;51.336;12.612;2024-03-17T03:38:16;100602.34;;;4.73;57.84
60061;BME280;45933;51.336;12.612;2024-03-17T03:40:42;100602.31;;;4.71;57.96
60061;BME280;45933;51.336;12.612;2024-03-17T03:43:08;100605.66;;;4.67;57.96
60061;BME280;45933;51.336;12.612;2024-03-17T03:45:34;100602.19;;;4.67;58.35
60061;BME280;45933;51.336;12.612;2024-03-17T03:47:59;100608.97;;;4.63;58.03
60061;BME280;45933;51.336;12.612;2024-03-17T03:50:24;100608.94;;;4.62;58.45
60061;BME280;45933;51.336;12.612;2024-03-17T03:52:50;100620.94;;;4.60;58.50
60061;BME280;45933;51.336;12.612;2024-03-17T03:55:16;100620.00;;;4.58;58.14
60061;BME280;45933;51.336;12.612;2024-03-17T03:57:43;100625.16;;;4.56;58.28
60061;BME280;45933;51.336;12.612;2024-03-17T04:00:11;100628.47;;;4.52;58.04
60061;BME280;45933;51.336;12.612;2024-03-17T04:02:40;100627.56;;;4.50;57.63
60061;BME280;45933;51.336;12.612;2024-03-17T04:05:06;100629.19;;;4.46;57.69
60061;BME280;45933;51.336;12.612;2024-03-17T04:07:32;100632.50;;;4.42;58.03
60061;BME280;45933;51.336;12.612;2024-03-17T04:09:57;100629.81;;;4.38;57.81
60061;BME280;45933;51.336;12.612;2024-03-17T04:12:24;100628.88;;;4.36;58.18
60061;BME280;45933;51.336;12.612;2024-03-17T04:14:50;100628.84;;;4.34;58.83
60061;BME280;45933;51.336;12.612;2024-03-17T04:17:21;100626.22;;;4.33;58.48
60061;BME280;45933;51.336;12.612;2024-03-17T04:19:50;100632.25;;;4.33;58.78
60061;BME280;45933;51.336;12.612;2024-03-17T04:22:16;100626.94;;;4.27;58.72
60061;BME280;45933;51.336;12.612;2024-03-17T04:24:44;100627.72;;;4.25;58.47
60061;BME280;45933;51.336;12.612;2024-03-17T04:27:10;100632.75;;;4.22;58.25
60061;BME280;45933;51.336;12.612;2024-03-17T04:29:35;100636.25;;;4.22;58.70
60061;BME280;45933;51.336;12.612;2024-03-17T04:32:00;100637.03;;;4.19;58.59
60061;BME280;45933;51.336;12.612;2024-03-17T04:34:26;100636.91;;;4.16;58.36
60061;BME280;45933;51.336;12.612;2024-03-17T04:36:52;100633.41;;;4.13;58.09
60061;BME280;45933;51.336;12.612;2024-03-17T04:39:18;100626.38;;;4.09;58.20
60061;BME280;45933;51.336;12.612;2024-03-17T04:41:44;100633.16;;;4.05;58.19
60061;BME280;45933;51.336;12.612;2024-03-17T04:44:10;100627.91;;;4.02;58.30
60061;BME280;45933;51.336;12.612;2024-03-17T04:46:35;100630.38;;;3.98;58.04
60061;BME280;45933;51.336;12.612;2024-03-17T04:49:00;100631.13;;;3.95;58.29
60061;BME280;45933;51.336;12.612;2024-03-17T04:51:26;100636.19;;;3.90;58.30
60061;BME280;45933;51.336;12.612;2024-03-17T04:53:51;100636.03;;;3.86;58.60
60061;BME280;45933;51.336;12.612;2024-03-17T04:56:17;100639.41;;;3.85;58.76
60061;BME280;45933;51.336;12.612;2024-03-17T04:58:42;100641.06;;;3.81;58.64
60061;BME280;45933;51.336;12.612;2024-03-17T05:01:08;100642.66;;;3.78;58.71
60061;BME280;45933;51.336;12.612;2024-03-17T05:03:34;100641.78;;;3.77;59.36
60061;BME280;45933;51.336;12.612;2024-03-17T05:06:03;100640.03;;;3.76;59.41
60061;BME280;45933;51.336;12.612;2024-03-17T05:08:30;100643.44;;;3.75;59.71
60061;BME280;45933;51.336;12.612;2024-03-17T05:11:03;100649.56;;;3.79;59.53
60061;BME280;45933;51.336;12.612;2024-03-17T05:13:30;100647.72;;;3.75;59.76
60061;BME280;45933;51.336;12.612;2024-03-17T05:15:56;100645.94;;;3.74;59.25
60061;BME280;45933;51.336;12.612;2024-03-17T05:18:21;100646.81;;;3.74;59.83
60061;BME280;45933;51.336;12.612;2024-03-17T05:20:56;100656.34;;;3.75;59.69
60061;BME280;45933;51.336;12.612;2024-03-17T05:23:21;100651.97;;;3.74;60.00
60061;BME280;45933;51.336;12.612;2024-03-17T05:25:53;100653.84;;;3.78;59.38
60061;BME280;45933;51.336;12.612;2024-03-17T05:28:18;100653.75;;;3.75;59.95
60061;BME280;45933;51.336;12.612;2024-03-17T05:30:43;100659.72;;;3.74;60.00
60061;BME280;45933;51.336;12.612;2024-03-17T05:33:09;100667.53;;;3.76;60.32
60061;BME280;45933;51.336;12.612;2024-03-17T05:35:35;100662.28;;;3.74;60.22
60061;BME280;45933;51.336;12.612;2024-03-17T05:38:00;100671.84;;;3.77;60.31
60061;BME280;45933;51.336;12.612;2024-03-17T05:40:25;100665.81;;;3.76;60.14
60061;BME280;45933;51.336;12.612;2024-03-17T05:42:50;100671.00;;;3.78;60.17
60061;BME280;45933;51.336;12.612;2024-03-17T05:45:17;100671.88;;;3.78;60.57
60061;BME280;45933;51.336;12.612;2024-03-17T05:47:42;100670.25;;;3.80;60.34
60061;BME280;45933;51.336;12.612;2024-03-17T05:50:08;100676.28;;;3.81;60.54
60061;BME280;45933;51.336;12.612;2024-03-17T05:52:34;100678.06;;;3.83;60.57
60061;BME280;45933;51.336;12.612;2024-03-17T05:54:59;100685.03;;;3.86;60.38
60061;BME280;45933;51.336;12.612;2024-03-17T05:57:25;100680.78;;;3.88;60.74
60061;BME280;45933;51.336;12.612;2024-03-17T05:59:51;100686.06;;;3.91;60.55
60061;BME280;45933;51.336;12.612;2024-03-17T06:02:16;100689.59;;;3.94;60.40
60061;BME280;45933;51.336;12.612;2024-03-17T06:04:41;100693.97;;;3.97;60.50
60061;BME280;45933;51.336;12.612;2024-03-17T06:07:07;100693.19;;;4.00;60.78
60061;BME280;45933;51.336;12.612;2024-03-17T06:09:32;100700.19;;;4.04;60.69
60061;BME280;45933;51.336;12.612;2024-03-17T06:11:57;100697.72;;;4.07;60.73
60061;BME280;45933;51.336;12.612;2024-03-17T06:14:23;100699.50;;;4.09;60.70
60061;BME280;45933;51.336;12.612;2024-03-17T06:16:48;100704.81;;;4.14;60.46
60061;BME280;45933;51.336;12.612;2024-03-17T06:19:13;100699.75;;;4.17;60.66
60061;BME280;45933;51.336;12.612;2024-03-17T06:21:40;100706.72;;;4.21;60.51
60061;BME280;45933;51.336;12.612;2024-03-17T06:24:05;100706.84;;;4.24;60.38
60061;BME280;45933;51.336;12.612;2024-03-17T06:26:31;100712.13;;;4.29;60.37
60061;BME280;45933;51.336;12.612;2024-03-17T06:28:59;100711.34;;;4.31;60.47
60061;BME280;45933;51.336;12.612;2024-03-17T06:31:24;100707.16;;;4.35;60.23
60061;BME280;45933;51.336;12.612;2024-03-17T06:33:50;100712.44;;;4.39;60.19
60061;BME280;45933;51.336;12.612;2024-03-17T06:36:15;100714.31;;;4.43;60.14
60061;BME280;45933;51.336;12.612;2024-03-17T06:38:41;100711.75;;;4.45;60.27
60061;BME280;45933;51.336;12.612;2024-03-17T06:41:06;100721.41;;;4.52;60.22
60061;BME280;45933;51.336;12.612;2024-03-17T06:43:31;100711.22;;;4.57;60.44
60061;BME280;45933;51.336;12.612;2024-03-17T06:45:59;100715.66;;;4.61;60.08
60061;BME280;45933;51.336;12.612;2024-03-17T06:48:25;100715.78;;;4.65;60.40
60061;BME280;45933;51.336;12.612;2024-03-17T06:50:51;100720.22;;;4.69;60.34
60061;BME280;45933;51.336;12.612;2024-03-17T06:53:17;100720.31;;;4.74;60.32
60061;BME280;45933;51.336;12.612;2024-03-17T06:55:43;100726.47;;;4.79;60.13
60061;BME280;45933;51.336;12.612;2024-03-17T06:58:10;100728.31;;;4.83;60.54
60061;BME280;45933;51.336;12.612;2024-03-17T07:00:35;100732.84;;;4.90;60.44
60061;BME280;45933;51.336;12.612;2024-03-17T07:03:01;100736.47;;;4.97;60.49
60061;BME280;45933;51.336;12.612;2024-03-17T07:05:27;100743.53;;;5.04;59.98
60061;BME280;45933;51.336;12.612;2024-03-17T07:07:55;100741.09;;;5.09;60.55
60061;BME280;45933;51.336;12.612;2024-03-17T07:10:20;100745.44;;;5.11;60.47
60061;BME280;45933;51.336;12.612;2024-03-17T07:12:45;100750.03;;;5.21;60.46
60061;BME280;45933;51.336;12.612;2024-03-17T07:15:10;100747.56;;;5.26;60.56
60061;BME280;45933;51.336;12.612;2024-03-17T07:17:36;100741.78;;;5.35;60.65
60061;BME280;45933;51.336;12.612;2024-03-17T07:20:01;100745.50;;;5.44;60.91
60061;BME280;45933;51.336;12.612;2024-03-17T07:22:27;100741.44;;;5.54;60.39
60061;BME280;45933;51.336;12.612;2024-03-17T07:24:53;100745.94;;;5.63;60.52
60061;BME280;45933;51.336;12.612;2024-03-17T07:27:22;100735.81;;;5.72;60.35
60061;BME280;45933;51.336;12.612;2024-03-17T07:29:47;100743.09;;;5.87;60.34
60061;BME280;45933;51.336;12.612;2024-03-17T07:32:12;100743.47;;;6.02;61.05
60061;BME280;45933;51.336;12.612;2024-03-17T07:34:37;100737.72;;;6.15;60.37
60061;BME280;45933;51.336;12.612;2024-03-17T07:37:03;100732.91;;;6.31;60.69
60061;BME280;45933;51.336;12.612;2024-03-17T07:39:29;100740.13;;;6.44;60.15
60061;BME280;45933;51.336;12.612;2024-03-17T07:41:59;100737.00;;;6.60;60.30
60061;BME280;45933;51.336;12.612;2024-03-17T07:44:25;100739.03;;;6.75;59.91
60061;BME280;45933;51.336;12.612;2024-03-17T07:46:50;100743.59;;;6.88;58.82
60061;BME280;45933;51.336;12.612;2024-03-17T07:49:15;100741.31;;;7.02;59.11
60061;BME280;45933;51.336;12.612;2024-03-17T07:51:41;100742.31;;;7.12;58.69
60061;BME280;45933;51.336;12.612;2024-03-17T07:54:09;100750.25;;;7.19;58.59
60061;BME280;45933;51.336;12.612;2024-03-17T07:56:34;100744.38;;;7.28;58.05
60061;BME280;45933;51.336;12.612;2024-03-17T07:58:59;100745.38;;;7.36;57.64
60061;BME280;45933;51.336;12.612;2024-03-17T08:01:25;100742.00;;;7.40;58.15
60061;BME280;45933;51.336;12.612;2024-03-17T08:03:50;100747.31;;;7.48;57.91
60061;BME280;45933;51.336;12.612;2024-03-17T08:06:20;100736.16;;;7.52;57.76
60061;BME280;45933;51.336;12.612;2024-03-17T08:08:46;100745.75;;;7.57;57.02
60061;BME280;45933;51.336;12.612;2024-03-17T08:11:11;100732.94;;;7.67;57.12
60061;BME280;45933;51.336;12.612;2024-03-17T08:13:36;100725.25;;;7.71;57.31
60061;BME280;45933;51.336;12.612;2024-03-17T08:16:04;100731.41;;;7.79;57.23
60061;BME280;45933;51.336;12.612;2024-03-17T08:18:33;100713.38;;;7.87;57.58
60061;BME280;45933;51.336;12.612;2024-03-17T08:21:02;100713.56;;;8.01;57.00
60061;BME280;45933;51.336;12.612;2024-03-17T08:23:29;100724.09;;;8.11;56.64
60061;BME280;45933;51.336;12.612;2024-03-17T08:25:56;100727.78;;;8.26;56.76
60061;BME280;45933;51.336;12.612;2024-03-17T08:28:23;100731.50;;;8.40;56.69
60061;BME280;45933;51.336;12.612;2024-03-17T08:30:56;100725.69;;;8.59;56.35
60061;BME280;45933;51.336;12.612;2024-03-17T08:33:22;100727.63;;;8.79;56.14
60061;BME280;45933;51.336;12.612;2024-03-17T08:35:58;100717.47;;;9.00;55.53
60061;BME280;45933;51.336;12.612;2024-03-17T08:38:24;100709.94;;;9.28;56.95
60061;BME280;45933;51.336;12.612;2024-03-17T08:40:50;100713.78;;;9.69;56.56
60061;BME280;45933;51.336;12.612;2024-03-17T08:43:16;100708.09;;;10.22;55.78
60061;BME280;45933;51.336;12.612;2024-03-17T08:45:41;100705.81;;;10.90;55.72
60061;BME280;45933;51.336;12.612;2024-03-17T08:48:06;100701.59;;;11.51;53.85
60061;BME280;45933;51.336;12.612;2024-03-17T08:50:32;100693.72;;;12.07;51.39
60061;BME280;45933;51.336;12.612;2024-03-17T08:52:59;100688.34;;;12.57;51.40
60061;BME280;45933;51.336;12.612;2024-03-17T08:55:24;100695.19;;;12.89;49.05
60061;BME280;45933;51.336;12.612;2024-03-17T08:57:49;100688.91;;;13.17;48.57
60061;BME280;45933;51.336;12.612;2024-03-17T09:00:15;100680.91;;;13.39;47.70
60061;BME280;45933;51.336;12.612;2024-03-17T09:02:40;100682.47;;;13.66;49.16
60061;BME280;45933;51.336;12.612;2024-03-17T09:05:06;100680.25;;;14.12;49.97
60061;BME280;45933;51.336;12.612;2024-03-17T09:07:32;100680.69;;;14.54;48.38
60061;BME280;45933;51.336;12.612;2024-03-17T09:09:58;100674.81;;;15.03;47.31
60061;BME280;45933;51.336;12.612;2024-03-17T09:12:24;100671.41;;;15.52;45.97
60061;BME280;45933;51.336;12.612;2024-03-17T09:14:49;100668.69;;;16.07;46.31
60061;BME280;45933;51.336;12.612;2024-03-17T09:17:14;100665.94;;;16.58;44.89
60061;BME280;45933;51.336;12.612;2024-03-17T09:19:40;100659.44;;;17.15;45.21
60061;BME280;45933;51.336;12.612;2024-03-17T09:22:05;100648.78;;;17.57;42.38
60061;BME280;45933;51.336;12.612;2024-03-17T09:24:30;100643.22;;;18.01;43.12
60061;BME280;45933;51.336;12.612;2024-03-17T09:26:56;100651.25;;;18.28;40.57
60061;BME280;45933;51.336;12.612;2024-03-17T09:29:21;100655.91;;;18.51;38.54
60061;BME280;45933;51.336;12.612;2024-03-17T09:31:46;100652.75;;;18.69;37.58
60061;BME280;45933;51.336;12.612;2024-03-17T09:34:11;100658.03;;;18.69;37.13
60061;BME280;45933;51.336;12.612;2024-03-17T09:36:37;100654.13;;;18.51;36.17
60061;BME280;45933;51.336;12.612;2024-03-17T09:39:02;100652.31;;;18.22;36.50
60061;BME280;45933;51.336;12.612;2024-03-17T09:41:29;100651.41;;;17.91;36.73
60061;BME280;45933;51.336;12.612;2024-03-17T09:43:56;100657.50;;;17.59;37.01
60061;BME280;45933;51.336;12.612;2024-03-17T09:46:25;100644.09;;;17.32;37.87
60061;BME280;45933;51.336;12.612;2024-03-17T09:48:52;100646.84;;;16.90;36.99
60061;BME280;45933;51.336;12.612;2024-03-17T09:51:19;100647.56;;;16.57;37.04
60061;BME280;45933;51.336;12.612;2024-03-17T09:53:45;100647.31;;;16.26;38.44
60061;BME280;45933;51.336;12.612;2024-03-17T09:56:13;100648.91;;;15.88;37.54
60061;BME280;45933;51.336;12.612;2024-03-17T09:58:40;100652.84;;;15.62;38.40
60061;BME280;45933;51.336;12.612;2024-03-17T10:01:05;100647.91;;;15.42;38.74
60061;BME280;45933;51.336;12.612;2024-03-17T10:06:21;100649.94;;;15.25;39.13
60061;BME280;45933;51.336;12.612;2024-03-17T10:08:51;100655.09;;;15.31;38.66
60061;BME280;45933;51.336;12.612;2024-03-17T10:11:19;100640.00;;;15.46;39.19
60061;BME280;45933;51.336;12.612;2024-03-17T10:13:47;100653.31;;;15.86;40.18
60061;BME280;45933;51.336;12.612;2024-03-17T10:16:27;100645.88;;;16.08;39.21
60061;BME280;45933;51.336;12.612;2024-03-17T10:19:21;100637.03;;;16.55;40.70
60061;BME280;45933;51.336;12.612;2024-03-17T10:21:47;100641.19;;;16.65;38.44
60061;BME280;45933;51.336;12.612;2024-03-17T10:24:24;100636.91;;;17.03;39.23
60061;BME280;45933;51.336;12.612;2024-03-17T10:26:51;100631.59;;;17.05;36.05
60061;BME280;45933;51.336;12.612;2024-03-17T10:29:26;100629.47;;;17.20;36.85
60061;BME280;45933;51.336;12.612;2024-03-17T10:31:53;100640.09;;;17.16;35.29
60061;BME280;45933;51.336;12.612;2024-03-17T10:34:19;100632.75;;;17.29;36.13
60061;BME280;45933;51.336;12.612;2024-03-17T10:36:48;100629.72;;;17.45;35.85
60061;BME280;45933;51.336;12.612;2024-03-17T10:39:26;100635.50;;;17.60;36.35
60061;BME280;45933;51.336;12.612;2024-03-17T10:42:00;100632.31;;;17.81;35.07
60061;BME280;45933;51.336;12.612;2024-03-17T10:44:30;100623.59;;;18.12;35.66
60061;BME280;45933;51.336;12.612;2024-03-17T10:46:56;100621.94;;;18.39;35.38
60061;BME280;45933;51.336;12.612;2024-03-17T10:49:33;100621.16;;;18.65;34.10
60061;BME280;45933;51.336;12.612;2024-03-17T10:52:06;100623.56;;;19.02;33.53
60061;BME280;45933;51.336;12.612;2024-03-17T10:54:33;100617.72;;;19.45;34.69
60061;BME280;45933;51.336;12.612;2024-03-17T11:00:00;100617.63;;;20.00;33.04
60061;BME280;45933;51.336;12.612;2024-03-17T11:02:29;100623.84;;;19.99;32.12
60061;BME280;45933;51.336;12.612;2024-03-17T11:05:02;100625.81;;;19.92;31.80
60061;BME280;45933;51.336;12.612;2024-03-17T11:07:28;100623.38;;;19.61;31.77
60061;BME280;45933;51.336;12.612;2024-03-17T11:09:56;100621.44;;;19.40;31.46
60061;BME280;45933;51.336;12.612;2024-03-17T11:17:54;100611.72;;;19.14;31.20
60061;BME280;45933;51.336;12.612;2024-03-17T11:20:27;100607.34;;;19.13;31.76
60061;BME280;45933;51.336;12.612;2024-03-17T11:22:56;100614.88;;;18.98;31.64
60061;BME280;45933;51.336;12.612;2024-03-17T11:27:50;100612.25;;;18.97;32.78
60061;BME280;45933;51.336;12.612;2024-03-17T11:38:56;100598.31;;;19.73;32.05
60061;BME280;45933;51.336;12.612;2024-03-17T11:47:06;100590.75;;;20.59;32.52
60061;BME280;45933;51.336;12.612;2024-03-17T11:49:39;100586.81;;;20.69;30.53
60061;BME280;45933;51.336;12.612;2024-03-17T11:52:12;100584.22;;;20.89;27.71
60061;BME280;45933;51.336;12.612;2024-03-17T11:54:43;100577.72;;;21.19;29.45
60061;BME280;45933;51.336;12.612;2024-03-17T11:57:11;100571.88;;;21.32;28.25
60061;BME280;45933;51.336;12.612;2024-03-17T11:59:37;100578.81;;;21.57;28.80
60061;BME280;45933;51.336;12.612;2024-03-17T12:02:09;100569.25;;;21.73;27.33
60061;BME280;45933;51.336;12.612;2024-03-17T12:04:39;100580.84;;;21.91;28.68
60061;BME280;45933;51.336;12.612;2024-03-17T12:07:11;100574.09;;;21.84;27.15
60061;BME280;45933;51.336;12.612;2024-03-17T12:09:37;100578.31;;;21.88;26.95
60061;BME280;45933;51.336;12.612;2024-03-17T12:12:25;100575.81;;;21.85;26.83
60061;BME280;45933;51.336;12.612;2024-03-17T12:14:50;100572.13;;;21.87;27.25
60061;BME280;45933;51.336;12.612;2024-03-17T12:17:24;100572.00;;;21.90;27.25
60061;BME280;45933;51.336;12.612;2024-03-17T12:19:50;100570.00;;;21.96;27.30
60061;BME280;45933;51.336;12.612;2024-03-17T12:22:18;100568.75;;;22.04;26.66
60061;BME280;45933;51.336;12.612;2024-03-17T12:24:47;100558.44;;;22.17;26.81
60061;BME280;45933;51.336;12.612;2024-03-17T12:27:18;100545.16;;;22.55;27.92
60061;BME280;45933;51.336;12.612;2024-03-17T12:29:43;100548.84;;;22.52;26.47
60061;BME280;45933;51.336;12.612;2024-03-17T12:32:14;100542.50;;;22.55;26.88
60061;BME280;45933;51.336;12.612;2024-03-17T12:34:42;100540.53;;;22.41;26.10
60061;BME280;45933;51.336;12.612;2024-03-17T12:37:07;100541.25;;;22.26;27.20
60061;BME280;45933;51.336;12.612;2024-03-17T12:39:34;100544.34;;;21.96;26.99
60061;BME280;45933;51.336;12.612;2024-03-17T12:42:10;100541.97;;;21.70;26.57
60061;BME280;45933;51.336;12.612;2024-03-17T12:44:38;100530.63;;;21.25;27.27
60061;BME280;45933;51.336;12.612;2024-03-17T12:47:14;100546.03;;;20.95;27.40
60061;BME280;45933;51.336;12.612;2024-03-17T12:49:59;100547.38;;;20.61;26.58
60061;BME280;45933;51.336;12.612;2024-03-17T12:52:29;100547.69;;;20.30;27.38
60061;BME280;45933;51.336;12.612;2024-03-17T12:55:01;100546.34;;;20.19;28.20
60061;BME280;45933;51.336;12.612;2024-03-17T12:57:47;100541.91;;;20.19;28.63
60061;BME280;45933;51.336;12.612;2024-03-17T13:00:32;100542.44;;;20.29;29.13
60061;BME280;45933;51.336;12.612;2024-03-17T13:02:58;100550.44;;;20.27;27.68
60061;BME280;45933;51.336;12.612;2024-03-17T13:05:24;100540.59;;;20.31;27.52
60061;BME280;45933;51.336;12.612;2024-03-17T13:07:50;100545.22;;;20.26;27.12
60061;BME280;45933;51.336;12.612;2024-03-17T13:10:19;100547.41;;;20.15;26.87
60061;BME280;45933;51.336;12.612;2024-03-17T13:12:45;100537.31;;;20.01;27.42
60061;BME280;45933;51.336;12.612;2024-03-17T13:15:15;100526.38;;;19.87;27.64